sensor_id;sensor_type;location;lat;lon;timestamp;P1;durP1;ratioP1;P2;durP2;ratioP2
16193;SDS011;8204;53.582;10.080;2022-10-28T00:01:36;7.47;;;5.37;;
16193;SDS011;8204;53.582;10.080;2022-10-28T00:04:05;8.03;;;6.17;;
16193;SDS011;8204;53.582;10.080;2022-10-28T00:06:34;7.87;;;5.47;;
16193;SDS011;8204;53.582;10.080;2022-10-28T00:09:04;9.10;;;5.90;;
16193;SDS011;8204;53.582;10.080;2022-10-28T00:11:35;10.47;;;5.63;;
16193;SDS011;8204;53.582;10.080;2022-10-28T00:14:05;6.50;;;5.97;;
16193;SDS011;8204;53.582;10.080;2022-10-28T00:16:35;6.77;;;5.37;;
16193;SDS011;8204;53.582;10.080;2022-10-28T00:19:05;7.00;;;6.10;;
16193;SDS011;8204;53.582;10.080;2022-10-28T00:21:37;8.47;;;5.70;;
16193;SDS011;8204;53.582;10.080;2022-10-28T00:24:08;9.60;;;5.53;;
16193;SDS011;8204;53.582;10.080;2022-10-28T00:26:40;7.20;;;5.90;;
16193;SDS011;8204;53.582;10.080;2022-10-28T00:29:11;7.93;;;5.43;;
16193;SDS011;8204;53.582;10.080;2022-10-28T00:31:43;10.47;;;6.07;;
16193;SDS011;8204;53.582;10.080;2022-10-28T00:34:13;7.07;;;6.03;;
16193;SDS011;8204;53.582;10.080;2022-10-28T00:36:43;8.53;;;5.80;;
16193;SDS011;8204;53.582;10.080;2022-10-28T00:39:14;5.93;;;5.33;;
16193;SDS011;8204;53.582;10.080;2022-10-28T00:41:47;6.47;;;5.83;;
16193;SDS011;8204;53.582;10.080;2022-10-28T00:47:11;8.03;;;5.83;;
16193;SDS011;8204;53.582;10.080;2022-10-28T00:49:45;6.10;;;5.60;;
16193;SDS011;8204;53.582;10.080;2022-10-28T00:52:17;6.70;;;6.20;;
16193;SDS011;8204;53.582;10.080;2022-10-28T00:54:49;6.67;;;6.07;;
16193;SDS011;8204;53.582;10.080;2022-10-28T00:57:24;8.63;;;6.10;;
16193;SDS011;8204;53.582;10.080;2022-10-28T01:00:02;8.57;;;6.50;;
16193;SDS011;8204;53.582;10.080;2022-10-28T01:02:36;7.67;;;6.50;;
16193;SDS011;8204;53.582;10.080;2022-10-28T01:05:11;9.73;;;6.03;;
16193;SDS011;8204;53.582;10.080;2022-10-28T01:07:43;6.07;;;5.47;;
16193;SDS011;8204;53.582;10.080;2022-10-28T01:10:12;6.53;;;5.93;;
16193;SDS011;8204;53.582;10.080;2022-10-28T01:12:49;9.27;;;6.50;;
16193;SDS011;8204;53.582;10.080;2022-10-28T01:15:29;7.03;;;6.13;;
16193;SDS011;8204;53.582;10.080;2022-10-28T01:18:07;7.40;;;5.53;;
16193;SDS011;8204;53.582;10.080;2022-10-28T01:20:59;6.60;;;5.70;;
16193;SDS011;8204;53.582;10.080;2022-10-28T01:23:47;7.00;;;6.37;;
16193;SDS011;8204;53.582;10.080;2022-10-28T01:26:46;6.40;;;5.83;;
16193;SDS011;8204;53.582;10.080;2022-10-28T01:29:38;9.57;;;7.03;;
16193;SDS011;8204;53.582;10.080;2022-10-28T01:32:33;5.97;;;5.37;;
16193;SDS011;8204;53.582;10.080;2022-10-28T01:35:11;7.73;;;6.03;;
16193;SDS011;8204;53.582;10.080;2022-10-28T01:37:47;9.60;;;5.47;;
16193;SDS011;8204;53.582;10.080;2022-10-28T01:40:24;9.40;;;6.40;;
16193;SDS011;8204;53.582;10.080;2022-10-28T01:43:02;9.83;;;6.63;;
16193;SDS011;8204;53.582;10.080;2022-10-28T01:45:38;9.63;;;6.87;;
16193;SDS011;8204;53.582;10.080;2022-10-28T01:48:15;10.73;;;6.37;;
16193;SDS011;8204;53.582;10.080;2022-10-28T01:50:50;6.97;;;6.10;;
16193;SDS011;8204;53.582;10.080;2022-10-28T01:53:26;7.73;;;6.40;;
16193;SDS011;8204;53.582;10.080;2022-10-28T01:55:58;6.60;;;5.73;;
16193;SDS011;8204;53.582;10.080;2022-10-28T01:58:32;6.17;;;5.57;;
16193;SDS011;8204;53.582;10.080;2022-10-28T02:01:04;7.67;;;6.47;;
16193;SDS011;8204;53.582;10.080;2022-10-28T02:03:37;6.83;;;6.13;;
16193;SDS011;8204;53.582;10.080;2022-10-28T02:06:09;6.83;;;6.23;;
16193;SDS011;8204;53.582;10.080;2022-10-28T02:08:49;7.90;;;5.67;;
16193;SDS011;8204;53.582;10.080;2022-10-28T02:11:30;9.53;;;6.30;;
16193;SDS011;8204;53.582;10.080;2022-10-28T02:14:12;10.43;;;6.90;;
16193;SDS011;8204;53.582;10.080;2022-10-28T02:16:50;6.87;;;6.20;;
16193;SDS011;8204;53.582;10.080;2022-10-28T02:19:29;7.03;;;6.07;;
16193;SDS011;8204;53.582;10.080;2022-10-28T02:22:10;9.60;;;6.53;;
16193;SDS011;8204;53.582;10.080;2022-10-28T02:24:47;9.60;;;6.40;;
16193;SDS011;8204;53.582;10.080;2022-10-28T02:27:24;10.20;;;6.07;;
16193;SDS011;8204;53.582;10.080;2022-10-28T02:30:01;6.40;;;5.87;;
16193;SDS011;8204;53.582;10.080;2022-10-28T02:32:34;7.40;;;5.77;;
16193;SDS011;8204;53.582;10.080;2022-10-28T02:35:10;7.63;;;5.87;;
16193;SDS011;8204;53.582;10.080;2022-10-28T02:37:44;7.50;;;5.63;;
16193;SDS011;8204;53.582;10.080;2022-10-28T02:40:17;7.07;;;6.40;;
16193;SDS011;8204;53.582;10.080;2022-10-28T02:42:50;8.43;;;6.23;;
16193;SDS011;8204;53.582;10.080;2022-10-28T02:45:23;7.17;;;6.43;;
16193;SDS011;8204;53.582;10.080;2022-10-28T02:47:56;8.27;;;6.03;;
16193;SDS011;8204;53.582;10.080;2022-10-28T02:50:30;10.60;;;6.93;;
16193;SDS011;8204;53.582;10.080;2022-10-28T02:53:03;7.20;;;6.50;;
16193;SDS011;8204;53.582;10.080;2022-10-28T02:55:38;6.97;;;5.60;;
16193;SDS011;8204;53.582;10.080;2022-10-28T02:58:11;9.87;;;6.20;;
16193;SDS011;8204;53.582;10.080;2022-10-28T03:00:42;10.67;;;5.60;;
16193;SDS011;8204;53.582;10.080;2022-10-28T03:03:12;13.07;;;7.67;;
16193;SDS011;8204;53.582;10.080;2022-10-28T03:05:49;11.60;;;5.73;;
16193;SDS011;8204;53.582;10.080;2022-10-28T03:08:18;6.43;;;5.70;;
16193;SDS011;8204;53.582;10.080;2022-10-28T03:10:49;6.77;;;5.30;;
16193;SDS011;8204;53.582;10.080;2022-10-28T03:13:18;11.30;;;7.03;;
16193;SDS011;8204;53.582;10.080;2022-10-28T03:15:46;8.10;;;5.67;;
16193;SDS011;8204;53.582;10.080;2022-10-28T03:18:15;12.57;;;6.90;;
16193;SDS011;8204;53.582;10.080;2022-10-28T03:20:44;8.30;;;5.83;;
16193;SDS011;8204;53.582;10.080;2022-10-28T03:23:15;7.40;;;6.23;;
16193;SDS011;8204;53.582;10.080;2022-10-28T03:25:44;7.00;;;5.80;;
16193;SDS011;8204;53.582;10.080;2022-10-28T03:28:13;9.23;;;6.60;;
16193;SDS011;8204;53.582;10.080;2022-10-28T03:30:41;21.37;;;6.10;;
16193;SDS011;8204;53.582;10.080;2022-10-28T03:33:10;9.17;;;6.30;;
16193;SDS011;8204;53.582;10.080;2022-10-28T03:35:39;8.50;;;6.47;;
16193;SDS011;8204;53.582;10.080;2022-10-28T03:38:08;7.83;;;6.77;;
16193;SDS011;8204;53.582;10.080;2022-10-28T03:40:40;7.03;;;6.47;;
16193;SDS011;8204;53.582;10.080;2022-10-28T03:43:09;8.10;;;5.97;;
16193;SDS011;8204;53.582;10.080;2022-10-28T03:45:38;8.37;;;6.30;;
16193;SDS011;8204;53.582;10.080;2022-10-28T03:48:06;8.40;;;5.93;;
16193;SDS011;8204;53.582;10.080;2022-10-28T03:50:35;12.37;;;10.23;;
16193;SDS011;8204;53.582;10.080;2022-10-28T03:53:04;9.13;;;8.30;;
16193;SDS011;8204;53.582;10.080;2022-10-28T03:55:33;11.17;;;8.97;;
16193;SDS011;8204;53.582;10.080;2022-10-28T03:58:05;11.77;;;6.20;;
16193;SDS011;8204;53.582;10.080;2022-10-28T04:00:34;7.47;;;6.37;;
16193;SDS011;8204;53.582;10.080;2022-10-28T04:03:03;6.87;;;5.87;;
16193;SDS011;8204;53.582;10.080;2022-10-28T04:05:31;8.47;;;6.60;;
16193;SDS011;8204;53.582;10.080;2022-10-28T04:08:00;8.07;;;7.37;;
16193;SDS011;8204;53.582;10.080;2022-10-28T04:10:29;7.20;;;6.50;;
16193;SDS011;8204;53.582;10.080;2022-10-28T04:12:58;9.80;;;7.17;;
16193;SDS011;8204;53.582;10.080;2022-10-28T04:15:30;9.03;;;6.73;;
16193;SDS011;8204;53.582;10.080;2022-10-28T04:17:59;14.47;;;7.47;;
16193;SDS011;8204;53.582;10.080;2022-10-28T04:20:28;8.83;;;6.00;;
16193;SDS011;8204;53.582;10.080;2022-10-28T04:22:58;7.33;;;6.33;;
16193;SDS011;8204;53.582;10.080;2022-10-28T04:25:27;7.10;;;6.40;;
16193;SDS011;8204;53.582;10.080;2022-10-28T04:27:56;7.33;;;6.53;;
16193;SDS011;8204;53.582;10.080;2022-10-28T04:30:25;9.17;;;7.53;;
16193;SDS011;8204;53.582;10.080;2022-10-28T04:32:56;6.53;;;5.80;;
16193;SDS011;8204;53.582;10.080;2022-10-28T04:35:25;8.03;;;7.00;;
16193;SDS011;8204;53.582;10.080;2022-10-28T04:37:54;7.23;;;6.30;;
16193;SDS011;8204;53.582;10.080;2022-10-28T04:40:23;5.93;;;5.37;;
16193;SDS011;8204;53.582;10.080;2022-10-28T04:42:51;10.47;;;7.03;;
16193;SDS011;8204;53.582;10.080;2022-10-28T04:45:20;9.40;;;6.23;;
16193;SDS011;8204;53.582;10.080;2022-10-28T04:47:49;7.43;;;6.57;;
16193;SDS011;8204;53.582;10.080;2022-10-28T04:50:27;8.33;;;7.40;;
16193;SDS011;8204;53.582;10.080;2022-10-28T04:52:55;7.23;;;6.43;;
16193;SDS011;8204;53.582;10.080;2022-10-28T04:55:24;7.77;;;6.97;;
16193;SDS011;8204;53.582;10.080;2022-10-28T04:57:53;10.17;;;6.90;;
16193;SDS011;8204;53.582;10.080;2022-10-28T05:00:23;7.67;;;7.03;;
16193;SDS011;8204;53.582;10.080;2022-10-28T05:02:52;10.37;;;7.73;;
16193;SDS011;8204;53.582;10.080;2022-10-28T05:05:23;13.33;;;7.50;;
16193;SDS011;8204;53.582;10.080;2022-10-28T05:07:52;8.13;;;7.33;;
16193;SDS011;8204;53.582;10.080;2022-10-28T05:10:21;12.90;;;8.00;;
16193;SDS011;8204;53.582;10.080;2022-10-28T05:12:50;7.90;;;7.10;;
16193;SDS011;8204;53.582;10.080;2022-10-28T05:15:19;8.07;;;7.23;;
16193;SDS011;8204;53.582;10.080;2022-10-28T05:17:48;9.67;;;7.40;;
16193;SDS011;8204;53.582;10.080;2022-10-28T05:20:17;7.40;;;6.70;;
16193;SDS011;8204;53.582;10.080;2022-10-28T05:22:51;6.83;;;6.30;;
16193;SDS011;8204;53.582;10.080;2022-10-28T05:25:21;12.83;;;7.13;;
16193;SDS011;8204;53.582;10.080;2022-10-28T05:27:50;8.70;;;7.10;;
16193;SDS011;8204;53.582;10.080;2022-10-28T05:30:19;7.83;;;7.13;;
16193;SDS011;8204;53.582;10.080;2022-10-28T05:32:49;11.87;;;7.07;;
16193;SDS011;8204;53.582;10.080;2022-10-28T05:35:18;10.93;;;7.90;;
16193;SDS011;8204;53.582;10.080;2022-10-28T05:37:47;12.17;;;7.20;;
16193;SDS011;8204;53.582;10.080;2022-10-28T05:40:18;8.03;;;6.93;;
16193;SDS011;8204;53.582;10.080;2022-10-28T05:42:47;11.53;;;7.63;;
16193;SDS011;8204;53.582;10.080;2022-10-28T05:45:15;8.50;;;7.70;;
16193;SDS011;8204;53.582;10.080;2022-10-28T05:47:45;11.17;;;7.60;;
16193;SDS011;8204;53.582;10.080;2022-10-28T05:50:16;8.40;;;7.70;;
16193;SDS011;8204;53.582;10.080;2022-10-28T05:52:46;8.27;;;7.57;;
16193;SDS011;8204;53.582;10.080;2022-10-28T05:55:19;9.00;;;7.27;;
16193;SDS011;8204;53.582;10.080;2022-10-28T05:57:49;10.87;;;7.20;;
16193;SDS011;8204;53.582;10.080;2022-10-28T06:00:20;11.13;;;7.63;;
16193;SDS011;8204;53.582;10.080;2022-10-28T06:02:51;9.63;;;7.43;;
16193;SDS011;8204;53.582;10.080;2022-10-28T06:05:20;8.87;;;7.53;;
16193;SDS011;8204;53.582;10.080;2022-10-28T06:07:49;12.70;;;7.77;;
16193;SDS011;8204;53.582;10.080;2022-10-28T06:10:20;11.53;;;6.83;;
16193;SDS011;8204;53.582;10.080;2022-10-28T06:12:49;8.77;;;7.83;;
16193;SDS011;8204;53.582;10.080;2022-10-28T06:15:18;12.20;;;7.30;;
16193;SDS011;8204;53.582;10.080;2022-10-28T06:17:47;10.53;;;9.53;;
16193;SDS011;8204;53.582;10.080;2022-10-28T06:20:16;13.27;;;8.63;;
16193;SDS011;8204;53.582;10.080;2022-10-28T06:22:47;11.27;;;7.80;;
16193;SDS011;8204;53.582;10.080;2022-10-28T06:25:20;8.67;;;7.87;;
16193;SDS011;8204;53.582;10.080;2022-10-28T06:27:53;10.57;;;8.33;;
16193;SDS011;8204;53.582;10.080;2022-10-28T06:30:24;10.70;;;7.67;;
16193;SDS011;8204;53.582;10.080;2022-10-28T06:32:55;8.40;;;7.43;;
16193;SDS011;8204;53.582;10.080;2022-10-28T06:35:24;7.37;;;6.67;;
16193;SDS011;8204;53.582;10.080;2022-10-28T06:37:54;8.27;;;7.20;;
16193;SDS011;8204;53.582;10.080;2022-10-28T06:40:25;7.10;;;6.33;;
16193;SDS011;8204;53.582;10.080;2022-10-28T06:42:58;10.83;;;8.03;;
16193;SDS011;8204;53.582;10.080;2022-10-28T06:45:28;8.07;;;7.30;;
16193;SDS011;8204;53.582;10.080;2022-10-28T06:47:58;8.17;;;7.37;;
16193;SDS011;8204;53.582;10.080;2022-10-28T06:50:28;16.63;;;8.30;;
16193;SDS011;8204;53.582;10.080;2022-10-28T06:52:58;8.13;;;7.33;;
16193;SDS011;8204;53.582;10.080;2022-10-28T06:55:29;11.27;;;8.37;;
16193;SDS011;8204;53.582;10.080;2022-10-28T06:57:59;9.33;;;7.30;;
16193;SDS011;8204;53.582;10.080;2022-10-28T07:00:29;9.70;;;8.53;;
16193;SDS011;8204;53.582;10.080;2022-10-28T07:02:59;15.23;;;7.60;;
16193;SDS011;8204;53.582;10.080;2022-10-28T07:05:28;10.13;;;8.47;;
16193;SDS011;8204;53.582;10.080;2022-10-28T07:07:57;7.73;;;6.93;;
16193;SDS011;8204;53.582;10.080;2022-10-28T07:10:26;15.57;;;7.83;;
16193;SDS011;8204;53.582;10.080;2022-10-28T07:12:57;11.30;;;8.53;;
16193;SDS011;8204;53.582;10.080;2022-10-28T07:15:26;12.00;;;6.97;;
16193;SDS011;8204;53.582;10.080;2022-10-28T07:17:55;10.30;;;7.87;;
16193;SDS011;8204;53.582;10.080;2022-10-28T07:20:26;8.63;;;7.73;;
16193;SDS011;8204;53.582;10.080;2022-10-28T07:22:57;8.07;;;7.37;;
16193;SDS011;8204;53.582;10.080;2022-10-28T07:25:28;8.93;;;7.20;;
16193;SDS011;8204;53.582;10.080;2022-10-28T07:28:00;9.00;;;8.07;;
16193;SDS011;8204;53.582;10.080;2022-10-28T07:30:30;13.30;;;7.83;;
16193;SDS011;8204;53.582;10.080;2022-10-28T07:32:59;8.67;;;7.87;;
16193;SDS011;8204;53.582;10.080;2022-10-28T07:35:30;9.10;;;7.50;;
16193;SDS011;8204;53.582;10.080;2022-10-28T07:37:59;11.67;;;8.17;;
16193;SDS011;8204;53.582;10.080;2022-10-28T07:40:28;10.87;;;8.13;;
16193;SDS011;8204;53.582;10.080;2022-10-28T07:42:57;10.17;;;7.13;;
16193;SDS011;8204;53.582;10.080;2022-10-28T07:45:28;7.83;;;7.03;;
16193;SDS011;8204;53.582;10.080;2022-10-28T07:47:57;9.83;;;6.83;;
16193;SDS011;8204;53.582;10.080;2022-10-28T07:50:26;17.57;;;7.50;;
16193;SDS011;8204;53.582;10.080;2022-10-28T07:52:54;19.37;;;8.80;;
16193;SDS011;8204;53.582;10.080;2022-10-28T07:55:23;7.03;;;6.33;;
16193;SDS011;8204;53.582;10.080;2022-10-28T07:57:53;9.77;;;7.87;;
16193;SDS011;8204;53.582;10.080;2022-10-28T08:00:24;11.70;;;7.03;;
16193;SDS011;8204;53.582;10.080;2022-10-28T08:02:53;9.87;;;7.67;;
16193;SDS011;8204;53.582;10.080;2022-10-28T08:05:22;17.77;;;7.63;;
16193;SDS011;8204;53.582;10.080;2022-10-28T08:07:50;9.60;;;7.40;;
16193;SDS011;8204;53.582;10.080;2022-10-28T08:10:19;11.23;;;7.83;;
16193;SDS011;8204;53.582;10.080;2022-10-28T08:12:48;9.23;;;7.43;;
16193;SDS011;8204;53.582;10.080;2022-10-28T08:15:17;8.13;;;7.13;;
16193;SDS011;8204;53.582;10.080;2022-10-28T08:17:52;9.67;;;7.93;;
16193;SDS011;8204;53.582;10.080;2022-10-28T08:20:21;10.57;;;7.23;;
16193;SDS011;8204;53.582;10.080;2022-10-28T08:22:50;9.67;;;8.63;;
16193;SDS011;8204;53.582;10.080;2022-10-28T08:25:19;11.87;;;7.57;;
16193;SDS011;8204;53.582;10.080;2022-10-28T08:27:48;8.83;;;6.87;;
16193;SDS011;8204;53.582;10.080;2022-10-28T08:30:17;10.30;;;7.87;;
16193;SDS011;8204;53.582;10.080;2022-10-28T08:32:46;8.23;;;7.43;;
16193;SDS011;8204;53.582;10.080;2022-10-28T08:35:17;11.83;;;7.47;;
16193;SDS011;8204;53.582;10.080;2022-10-28T08:37:49;10.30;;;7.70;;
16193;SDS011;8204;53.582;10.080;2022-10-28T08:40:18;7.50;;;6.80;;
16193;SDS011;8204;53.582;10.080;2022-10-28T08:42:55;11.37;;;7.03;;
16193;SDS011;8204;53.582;10.080;2022-10-28T08:45:33;15.13;;;6.90;;
16193;SDS011;8204;53.582;10.080;2022-10-28T08:48:13;10.23;;;7.10;;
16193;SDS011;8204;53.582;10.080;2022-10-28T08:50:52;12.50;;;7.27;;
16193;SDS011;8204;53.582;10.080;2022-10-28T08:53:26;10.07;;;8.27;;
16193;SDS011;8204;53.582;10.080;2022-10-28T08:56:03;9.93;;;7.30;;
16193;SDS011;8204;53.582;10.080;2022-10-28T08:58:39;9.50;;;6.33;;
16193;SDS011;8204;53.582;10.080;2022-10-28T09:01:13;8.33;;;7.27;;
16193;SDS011;8204;53.582;10.080;2022-10-28T09:03:49;10.30;;;7.33;;
16193;SDS011;8204;53.582;10.080;2022-10-28T09:06:22;8.23;;;6.97;;
16193;SDS011;8204;53.582;10.080;2022-10-28T09:08:50;13.83;;;7.03;;
16193;SDS011;8204;53.582;10.080;2022-10-28T09:14:42;11.93;;;7.07;;
16193;SDS011;8204;53.582;10.080;2022-10-28T09:17:19;9.70;;;6.93;;
16193;SDS011;8204;53.582;10.080;2022-10-28T09:19:58;7.80;;;6.87;;
16193;SDS011;8204;53.582;10.080;2022-10-28T09:22:38;9.03;;;6.73;;
16193;SDS011;8204;53.582;10.080;2022-10-28T09:25:19;11.23;;;6.37;;
16193;SDS011;8204;53.582;10.080;2022-10-28T09:28:03;8.40;;;6.07;;
16193;SDS011;8204;53.582;10.080;2022-10-28T09:30:45;12.67;;;6.67;;
16193;SDS011;8204;53.582;10.080;2022-10-28T09:36:27;11.53;;;6.30;;
16193;SDS011;8204;53.582;10.080;2022-10-28T09:39:04;9.93;;;6.67;;
16193;SDS011;8204;53.582;10.080;2022-10-28T09:41:38;7.37;;;6.10;;
16193;SDS011;8204;53.582;10.080;2022-10-28T09:44:11;8.90;;;7.37;;
16193;SDS011;8204;53.582;10.080;2022-10-28T09:46:43;11.87;;;7.07;;
16193;SDS011;8204;53.582;10.080;2022-10-28T09:49:15;10.60;;;6.47;;
16193;SDS011;8204;53.582;10.080;2022-10-28T09:51:49;7.13;;;6.17;;
16193;SDS011;8204;53.582;10.080;2022-10-28T09:54:29;14.57;;;6.33;;
16193;SDS011;8204;53.582;10.080;2022-10-28T09:57:02;13.60;;;7.37;;
16193;SDS011;8204;53.582;10.080;2022-10-28T09:59:32;9.00;;;6.37;;
16193;SDS011;8204;53.582;10.080;2022-10-28T10:02:01;8.30;;;6.53;;
16193;SDS011;8204;53.582;10.080;2022-10-28T10:04:31;19.40;;;8.37;;
16193;SDS011;8204;53.582;10.080;2022-10-28T10:07:01;16.57;;;6.83;;
16193;SDS011;8204;53.582;10.080;2022-10-28T10:09:36;11.63;;;6.80;;
16193;SDS011;8204;53.582;10.080;2022-10-28T10:12:06;9.67;;;6.33;;
16193;SDS011;8204;53.582;10.080;2022-10-28T10:14:37;8.67;;;5.77;;
16193;SDS011;8204;53.582;10.080;2022-10-28T10:17:12;7.23;;;6.47;;
16193;SDS011;8204;53.582;10.080;2022-10-28T10:22:35;13.47;;;6.27;;
16193;SDS011;8204;53.582;10.080;2022-10-28T10:25:20;8.63;;;6.27;;
16193;SDS011;8204;53.582;10.080;2022-10-28T10:27:55;11.17;;;6.40;;
16193;SDS011;8204;53.582;10.080;2022-10-28T10:30:27;9.47;;;6.53;;
16193;SDS011;8204;53.582;10.080;2022-10-28T10:32:59;16.00;;;6.13;;
16193;SDS011;8204;53.582;10.080;2022-10-28T10:35:30;9.13;;;5.50;;
16193;SDS011;8204;53.582;10.080;2022-10-28T10:38:00;10.23;;;6.27;;
16193;SDS011;8204;53.582;10.080;2022-10-28T10:40:35;13.70;;;5.90;;
16193;SDS011;8204;53.582;10.080;2022-10-28T10:43:24;12.57;;;5.43;;
16193;SDS011;8204;53.582;10.080;2022-10-28T10:45:59;11.97;;;6.30;;
16193;SDS011;8204;53.582;10.080;2022-10-28T10:48:30;7.43;;;5.60;;
16193;SDS011;8204;53.582;10.080;2022-10-28T10:51:03;12.33;;;5.83;;
16193;SDS011;8204;53.582;10.080;2022-10-28T10:53:34;12.93;;;6.83;;
16193;SDS011;8204;53.582;10.080;2022-10-28T10:56:08;8.83;;;6.47;;
16193;SDS011;8204;53.582;10.080;2022-10-28T10:58:47;8.57;;;5.30;;
16193;SDS011;8204;53.582;10.080;2022-10-28T11:01:20;10.47;;;5.90;;
16193;SDS011;8204;53.582;10.080;2022-10-28T11:03:52;13.40;;;6.93;;
16193;SDS011;8204;53.582;10.080;2022-10-28T11:06:24;8.23;;;6.27;;
16193;SDS011;8204;53.582;10.080;2022-10-28T11:08:55;13.10;;;7.13;;
16193;SDS011;8204;53.582;10.080;2022-10-28T11:11:33;8.93;;;5.87;;
16193;SDS011;8204;53.582;10.080;2022-10-28T11:14:05;12.67;;;7.40;;
16193;SDS011;8204;53.582;10.080;2022-10-28T11:16:47;8.57;;;5.70;;
16193;SDS011;8204;53.582;10.080;2022-10-28T11:19:19;12.67;;;5.43;;
16193;SDS011;8204;53.582;10.080;2022-10-28T11:21:54;12.67;;;5.87;;
16193;SDS011;8204;53.582;10.080;2022-10-28T11:24:43;7.40;;;4.90;;
16193;SDS011;8204;53.582;10.080;2022-10-28T11:27:30;8.50;;;5.63;;
16193;SDS011;8204;53.582;10.080;2022-10-28T11:30:07;14.67;;;6.40;;
16193;SDS011;8204;53.582;10.080;2022-10-28T11:32:44;11.57;;;6.03;;
16193;SDS011;8204;53.582;10.080;2022-10-28T11:38:21;12.60;;;6.10;;
16193;SDS011;8204;53.582;10.080;2022-10-28T11:41:15;11.13;;;5.57;;
16193;SDS011;8204;53.582;10.080;2022-10-28T11:43:54;12.90;;;6.43;;
16193;SDS011;8204;53.582;10.080;2022-10-28T11:49:27;12.17;;;6.23;;
16193;SDS011;8204;53.582;10.080;2022-10-28T11:52:14;11.40;;;6.60;;
16193;SDS011;8204;53.582;10.080;2022-10-28T11:54:55;15.83;;;6.13;;
16193;SDS011;8204;53.582;10.080;2022-10-28T11:57:37;14.83;;;6.60;;
16193;SDS011;8204;53.582;10.080;2022-10-28T12:03:13;11.43;;;6.57;;
16193;SDS011;8204;53.582;10.080;2022-10-28T12:06:01;14.53;;;6.43;;
16193;SDS011;8204;53.582;10.080;2022-10-28T12:08:40;8.03;;;5.63;;
16193;SDS011;8204;53.582;10.080;2022-10-28T12:11:24;14.10;;;6.40;;
16193;SDS011;8204;53.582;10.080;2022-10-28T12:14:04;8.60;;;6.43;;
16193;SDS011;8204;53.582;10.080;2022-10-28T12:16:45;7.63;;;5.93;;
16193;SDS011;8204;53.582;10.080;2022-10-28T12:19:20;13.07;;;6.30;;
16193;SDS011;8204;53.582;10.080;2022-10-28T12:21:57;10.57;;;6.23;;
16193;SDS011;8204;53.582;10.080;2022-10-28T12:24:30;9.87;;;5.97;;
16193;SDS011;8204;53.582;10.080;2022-10-28T12:27:03;14.10;;;6.13;;
16193;SDS011;8204;53.582;10.080;2022-10-28T12:29:39;7.57;;;5.87;;
16193;SDS011;8204;53.582;10.080;2022-10-28T12:32:17;11.07;;;5.80;;
16193;SDS011;8204;53.582;10.080;2022-10-28T12:34:50;14.50;;;6.37;;
16193;SDS011;8204;53.582;10.080;2022-10-28T12:37:26;11.53;;;6.17;;
16193;SDS011;8204;53.582;10.080;2022-10-28T12:40:03;13.57;;;6.77;;
16193;SDS011;8204;53.582;10.080;2022-10-28T12:42:41;13.97;;;8.37;;
16193;SDS011;8204;53.582;10.080;2022-10-28T12:45:14;10.77;;;5.43;;
16193;SDS011;8204;53.582;10.080;2022-10-28T12:47:50;9.67;;;5.97;;
16193;SDS011;8204;53.582;10.080;2022-10-28T12:50:26;13.13;;;6.50;;
16193;SDS011;8204;53.582;10.080;2022-10-28T12:53:06;10.90;;;6.40;;
16193;SDS011;8204;53.582;10.080;2022-10-28T12:55:47;7.93;;;6.07;;
16193;SDS011;8204;53.582;10.080;2022-10-28T12:58:22;14.20;;;5.90;;
16193;SDS011;8204;53.582;10.080;2022-10-28T13:00:56;11.57;;;5.70;;
16193;SDS011;8204;53.582;10.080;2022-10-28T13:03:32;10.97;;;5.50;;
16193;SDS011;8204;53.582;10.080;2022-10-28T13:06:05;13.70;;;6.07;;
16193;SDS011;8204;53.582;10.080;2022-10-28T13:14:55;14.10;;;6.67;;
16193;SDS011;8204;53.582;10.080;2022-10-28T13:17:40;10.17;;;5.80;;
16193;SDS011;8204;53.582;10.080;2022-10-28T13:20:20;13.03;;;5.80;;
16193;SDS011;8204;53.582;10.080;2022-10-28T13:22:59;10.90;;;5.60;;
16193;SDS011;8204;53.582;10.080;2022-10-28T13:25:37;15.70;;;6.10;;
16193;SDS011;8204;53.582;10.080;2022-10-28T13:28:24;10.73;;;6.03;;
16193;SDS011;8204;53.582;10.080;2022-10-28T13:30:58;13.87;;;5.73;;
16193;SDS011;8204;53.582;10.080;2022-10-28T13:33:29;9.63;;;5.80;;
16193;SDS011;8204;53.582;10.080;2022-10-28T13:36:14;11.87;;;6.03;;
16193;SDS011;8204;53.582;10.080;2022-10-28T13:38:50;9.93;;;4.83;;
16193;SDS011;8204;53.582;10.080;2022-10-28T13:41:27;9.20;;;6.07;;
16193;SDS011;8204;53.582;10.080;2022-10-28T13:59:16;10.47;;;6.00;;
16193;SDS011;8204;53.582;10.080;2022-10-28T14:01:59;17.43;;;7.13;;
16193;SDS011;8204;53.582;10.080;2022-10-28T14:04:31;11.07;;;5.90;;
16193;SDS011;8204;53.582;10.080;2022-10-28T14:07:17;13.47;;;7.27;;
16193;SDS011;8204;53.582;10.080;2022-10-28T14:09:50;14.73;;;7.17;;
16193;SDS011;8204;53.582;10.080;2022-10-28T14:12:26;11.37;;;6.87;;
16193;SDS011;8204;53.582;10.080;2022-10-28T14:15:02;12.40;;;7.13;;
16193;SDS011;8204;53.582;10.080;2022-10-28T14:17:36;14.40;;;6.87;;
16193;SDS011;8204;53.582;10.080;2022-10-28T14:20:18;14.67;;;6.83;;
16193;SDS011;8204;53.582;10.080;2022-10-28T14:22:50;11.13;;;6.17;;
16193;SDS011;8204;53.582;10.080;2022-10-28T14:31:36;12.37;;;7.43;;
16193;SDS011;8204;53.582;10.080;2022-10-28T14:40:18;13.50;;;6.63;;
16193;SDS011;8204;53.582;10.080;2022-10-28T14:42:54;9.97;;;6.70;;
16193;SDS011;8204;53.582;10.080;2022-10-28T14:45:36;13.63;;;7.17;;
16193;SDS011;8204;53.582;10.080;2022-10-28T14:48:26;10.20;;;6.83;;
16193;SDS011;8204;53.582;10.080;2022-10-28T14:51:07;15.03;;;7.07;;
16193;SDS011;8204;53.582;10.080;2022-10-28T14:53:42;10.13;;;7.33;;
16193;SDS011;8204;53.582;10.080;2022-10-28T14:56:16;10.73;;;6.40;;
16193;SDS011;8204;53.582;10.080;2022-10-28T14:58:49;15.30;;;8.33;;
16193;SDS011;8204;53.582;10.080;2022-10-28T15:01:23;11.40;;;7.57;;
16193;SDS011;8204;53.582;10.080;2022-10-28T15:03:55;11.47;;;7.07;;
16193;SDS011;8204;53.582;10.080;2022-10-28T15:06:30;13.80;;;8.23;;
16193;SDS011;8204;53.582;10.080;2022-10-28T15:09:15;14.30;;;7.57;;
16193;SDS011;8204;53.582;10.080;2022-10-28T15:11:48;9.73;;;8.13;;
16193;SDS011;8204;53.582;10.080;2022-10-28T15:14:28;13.37;;;7.67;;
16193;SDS011;8204;53.582;10.080;2022-10-28T15:17:08;12.53;;;7.93;;
16193;SDS011;8204;53.582;10.080;2022-10-28T15:19:40;11.67;;;7.57;;
16193;SDS011;8204;53.582;10.080;2022-10-28T15:22:11;12.33;;;7.40;;
16193;SDS011;8204;53.582;10.080;2022-10-28T15:24:45;7.83;;;6.97;;
16193;SDS011;8204;53.582;10.080;2022-10-28T15:27:20;20.90;;;8.87;;
16193;SDS011;8204;53.582;10.080;2022-10-28T15:29:49;14.57;;;7.27;;
16193;SDS011;8204;53.582;10.080;2022-10-28T15:32:26;17.13;;;8.90;;
16193;SDS011;8204;53.582;10.080;2022-10-28T15:34:57;12.77;;;8.23;;
16193;SDS011;8204;53.582;10.080;2022-10-28T15:37:27;11.07;;;7.50;;
16193;SDS011;8204;53.582;10.080;2022-10-28T15:42:51;13.37;;;8.53;;
16193;SDS011;8204;53.582;10.080;2022-10-28T15:45:25;13.93;;;7.57;;
16193;SDS011;8204;53.582;10.080;2022-10-28T15:47:59;17.63;;;8.87;;
16193;SDS011;8204;53.582;10.080;2022-10-28T15:50:29;12.30;;;9.13;;
16193;SDS011;8204;53.582;10.080;2022-10-28T15:56:12;16.10;;;9.57;;
16193;SDS011;8204;53.582;10.080;2022-10-28T15:58:47;13.00;;;8.03;;
16193;SDS011;8204;53.582;10.080;2022-10-28T16:01:30;12.70;;;9.23;;
16193;SDS011;8204;53.582;10.080;2022-10-28T16:04:31;15.73;;;9.40;;
16193;SDS011;8204;53.582;10.080;2022-10-28T16:07:10;12.47;;;8.70;;
16193;SDS011;8204;53.582;10.080;2022-10-28T16:09:41;18.77;;;10.23;;
16193;SDS011;8204;53.582;10.080;2022-10-28T16:12:13;12.47;;;9.17;;
16193;SDS011;8204;53.582;10.080;2022-10-28T16:14:44;15.90;;;9.27;;
16193;SDS011;8204;53.582;10.080;2022-10-28T16:17:16;17.13;;;9.60;;
16193;SDS011;8204;53.582;10.080;2022-10-28T16:19:51;11.70;;;9.30;;